SGAS/ASU METAR and TAF weather

Enter ICAO airport designator
Station Type Date Time Source
SGAS METAR 2024/06/16 08:00 UTC NOAA

SGAS 160800Z VRB02KT 7000 VCTS BKN030 FEW040CB 22/22 Q1011


Station Type Date Time Source
SGAS Decoded METAR 2024/06/16 08:00 UTC NOAA

Asuncion / Aeropuerto, Paraguay (SGAS) 25-16S 057-38W 101M
Jun 16, 2024 - 04:00 AM EDT / 2024.06.16 0800 UTC
Wind: Variable at 2 MPH (2 KT):0
Visibility: 4 mile(s):0
Sky conditions: mostly cloudy
Weather: thunder in the vicinity; Cumulonimbus clouds observed
Temperature: 71 F (22 C)
Dew Point: 71 F (22 C)
Relative Humidity: 100%
Pressure (altimeter): 29.85 in. Hg (1011 hPa)
ob: SGAS 160800Z VRB02KT 7000 VCTS BKN030 FEW040CB 22/22 Q1011
cycle: 8

Station Type Date Time Source
SGAS TAF 2024/06/16 06:23 UTC NOAA